createdAt,value
2023-05-14T00:01:08.053Z,11.38
2023-05-14T00:03:35.101Z,10.48
2023-05-14T00:06:01.932Z,10.68
2023-05-14T00:08:29.101Z,10.50
2023-05-14T00:10:56.015Z,10.52
2023-05-14T00:13:23.454Z,10.82
2023-05-14T00:15:50.324Z,10.27
2023-05-14T00:18:17.124Z,10.30
2023-05-14T00:20:43.941Z,10.38
2023-05-14T00:23:10.736Z,10.30
2023-05-14T00:25:37.516Z,10.70
2023-05-14T00:28:04.635Z,10.68
2023-05-14T00:30:31.429Z,10.65
2023-05-14T00:32:58.185Z,10.80
2023-05-14T00:35:24.941Z,10.98
2023-05-14T00:37:51.711Z,10.75
2023-05-14T00:40:18.517Z,10.85
2023-05-14T00:42:45.466Z,10.52
2023-05-14T00:45:12.212Z,11.60
2023-05-14T00:47:40.173Z,10.60
2023-05-14T00:50:07.456Z,10.75
2023-05-14T00:52:34.381Z,10.90
2023-05-14T00:55:03.969Z,10.98
2023-05-14T00:57:30.883Z,10.77
2023-05-14T00:59:58.908Z,10.68
2023-05-14T01:02:26.337Z,10.65
2023-05-14T01:04:53.912Z,11.30
2023-05-14T01:07:28.019Z,10.85
2023-05-14T01:10:13.679Z,10.50
2023-05-14T01:12:48.584Z,10.18
2023-05-14T01:15:23.765Z,10.52
2023-05-14T01:18:04.737Z,10.63
2023-05-14T01:20:31.534Z,10.43
2023-05-14T01:22:58.270Z,10.98
2023-05-14T01:25:26.037Z,10.50
2023-05-14T01:28:12.796Z,11.32
2023-05-14T01:30:51.592Z,11.77
2023-05-14T01:33:19.902Z,10.63
2023-05-14T01:35:46.765Z,10.57
2023-05-14T01:38:16.033Z,11.20
2023-05-14T01:40:44.143Z,10.88
2023-05-14T01:43:11.705Z,11.00
2023-05-14T01:45:38.507Z,11.38
2023-05-14T01:48:05.903Z,10.70
2023-05-14T01:50:32.802Z,10.88
2023-05-14T01:52:59.572Z,10.98
2023-05-14T01:55:26.451Z,10.95
2023-05-14T01:57:53.560Z,11.25
2023-05-14T02:00:22.820Z,10.93
2023-05-14T02:02:49.658Z,10.65
2023-05-14T02:05:16.401Z,11.27
2023-05-14T02:07:43.352Z,10.85
2023-05-14T02:10:10.646Z,11.18
2023-05-14T02:12:37.638Z,10.88
2023-05-14T02:15:04.795Z,10.63
2023-05-14T02:17:31.472Z,11.52
2023-05-14T02:19:58.378Z,11.75
2023-05-14T02:22:25.160Z,10.75
2023-05-14T02:24:52.005Z,11.35
2023-05-14T02:27:18.972Z,11.18
2023-05-14T02:29:45.772Z,11.13
2023-05-14T02:32:12.541Z,11.32
2023-05-14T02:34:39.336Z,11.18
2023-05-14T02:37:06.119Z,11.13
2023-05-14T02:39:32.880Z,11.30
2023-05-14T02:41:59.618Z,10.63
2023-05-14T02:44:26.382Z,11.45
2023-05-14T02:46:53.574Z,11.82
2023-05-14T02:49:20.337Z,11.68
2023-05-14T02:51:47.053Z,11.52
2023-05-14T02:54:13.762Z,12.13
2023-05-14T02:56:40.443Z,11.25
2023-05-14T02:59:07.181Z,11.98
2023-05-14T03:01:34.472Z,10.57
2023-05-14T03:04:01.529Z,11.57
2023-05-14T03:06:28.266Z,11.50
2023-05-14T03:08:54.996Z,11.70
2023-05-14T03:11:21.754Z,10.65
2023-05-14T03:13:48.504Z,10.63
2023-05-14T03:16:15.491Z,10.75
2023-05-14T03:18:42.307Z,11.32
2023-05-14T03:21:09.259Z,11.65
2023-05-14T03:23:36.299Z,11.07
2023-05-14T03:26:03.817Z,12.05
2023-05-14T03:28:30.916Z,12.00
2023-05-14T03:30:57.763Z,10.90
2023-05-14T03:33:24.553Z,11.80
2023-05-14T03:35:51.907Z,11.30
2023-05-14T03:38:18.693Z,12.15
2023-05-14T03:40:45.558Z,11.48
2023-05-14T03:43:12.244Z,12.23
2023-05-14T03:45:39.251Z,11.93
2023-05-14T03:48:06.456Z,11.75
2023-05-14T03:50:33.235Z,11.90
2023-05-14T03:52:59.906Z,12.00
2023-05-14T03:55:26.564Z,12.15
2023-05-14T03:57:53.282Z,10.35
2023-05-14T04:00:20.218Z,11.63
2023-05-14T04:02:46.989Z,11.38
2023-05-14T04:05:13.814Z,11.43
2023-05-14T04:07:40.602Z,11.45
2023-05-14T04:10:07.856Z,11.30
2023-05-14T04:12:34.688Z,10.95
2023-05-14T04:15:01.404Z,11.23
2023-05-14T04:17:28.436Z,11.35
2023-05-14T04:19:55.212Z,11.95
2023-05-14T04:22:22.037Z,11.70
2023-05-14T04:24:48.794Z,11.50
2023-05-14T04:27:23.678Z,11.10
2023-05-14T04:29:50.804Z,10.98
2023-05-14T04:32:18.226Z,11.30
2023-05-14T04:34:45.085Z,11.07
2023-05-14T04:37:11.869Z,12.02
2023-05-14T04:39:38.865Z,12.00
2023-05-14T04:42:06.827Z,11.88
2023-05-14T04:44:35.477Z,11.32
2023-05-14T04:47:02.735Z,11.05
2023-05-14T04:49:29.716Z,11.30
2023-05-14T04:51:56.440Z,10.60
2023-05-14T04:54:23.225Z,10.60
2023-05-14T04:56:50.778Z,10.77
2023-05-14T04:59:17.919Z,11.32
2023-05-14T05:01:45.938Z,10.88
2023-05-14T05:04:13.047Z,11.07
2023-05-14T05:06:40.034Z,11.10
2023-05-14T05:09:06.927Z,11.90
2023-05-14T05:11:33.646Z,10.00
2023-05-14T05:14:00.588Z,9.60
2023-05-14T05:16:27.473Z,10.20
2023-05-14T05:18:54.346Z,11.20
2023-05-14T05:21:21.194Z,10.05
2023-05-14T05:23:47.924Z,9.57
2023-05-14T05:26:14.676Z,9.73
2023-05-14T05:28:41.426Z,9.23
2023-05-14T05:31:08.343Z,9.00
2023-05-14T05:33:35.851Z,9.90
2023-05-14T05:36:02.830Z,9.88
2023-05-14T05:38:29.550Z,9.43
2023-05-14T05:40:56.261Z,8.88
2023-05-14T05:43:23.207Z,8.98
2023-05-14T05:45:49.923Z,9.50
2023-05-14T05:48:16.971Z,8.98
2023-05-14T05:50:47.552Z,9.18
2023-05-14T05:53:16.445Z,9.30
2023-05-14T05:55:43.205Z,9.10
2023-05-14T05:58:10.195Z,9.20
2023-05-14T06:00:37.034Z,8.70
2023-05-14T06:03:03.830Z,8.48
2023-05-14T06:05:30.820Z,8.45
2023-05-14T06:07:57.604Z,8.32
2023-05-14T06:10:24.595Z,8.10
2023-05-14T06:12:51.415Z,7.90
2023-05-14T06:15:19.074Z,8.60
2023-05-14T06:17:46.151Z,7.75
2023-05-14T06:20:13.151Z,8.23
2023-05-14T06:22:39.943Z,7.43
2023-05-14T06:25:07.166Z,7.13
2023-05-14T06:27:33.889Z,7.35
2023-05-14T06:30:01.360Z,7.88
2023-05-14T06:32:28.211Z,7.80
2023-05-14T06:34:54.924Z,8.15
2023-05-14T06:37:21.691Z,7.40
2023-05-14T06:39:50.466Z,7.82
2023-05-14T06:42:17.661Z,7.55
2023-05-14T06:44:45.272Z,7.03
2023-05-14T06:47:12.021Z,7.47
2023-05-14T06:49:39.205Z,7.60
2023-05-14T06:52:06.450Z,7.70
2023-05-14T06:54:33.217Z,7.38
2023-05-14T06:56:59.905Z,7.60
2023-05-14T06:59:26.814Z,6.88
2023-05-14T07:01:53.630Z,7.22
2023-05-14T07:04:20.668Z,7.20
2023-05-14T07:06:47.492Z,7.95
2023-05-14T07:09:16.098Z,7.90
2023-05-14T07:11:42.794Z,7.85
2023-05-14T07:14:09.467Z,7.85
2023-05-14T07:16:36.624Z,8.05
2023-05-14T07:19:03.479Z,7.55
2023-05-14T07:21:30.363Z,7.32
2023-05-14T07:23:57.038Z,8.30
2023-05-14T07:26:24.573Z,7.78
2023-05-14T07:28:51.397Z,7.90
2023-05-14T07:31:18.243Z,7.95
2023-05-14T07:33:45.207Z,8.30
2023-05-14T07:36:12.121Z,8.40
2023-05-14T07:38:38.926Z,8.65
2023-05-14T07:41:05.792Z,9.23
2023-05-14T07:43:32.712Z,9.07
2023-05-14T07:45:59.540Z,8.80
2023-05-14T07:48:26.374Z,8.95
2023-05-14T07:50:53.833Z,8.77
2023-05-14T07:53:20.667Z,9.68
2023-05-14T07:55:49.042Z,9.15
2023-05-14T07:58:16.271Z,8.60
2023-05-14T08:00:43.065Z,9.45
2023-05-14T08:03:09.869Z,8.48
2023-05-14T08:05:36.953Z,8.57
2023-05-14T08:08:03.862Z,8.25
2023-05-14T08:10:30.915Z,8.02
2023-05-14T08:12:57.831Z,8.23
2023-05-14T08:15:27.048Z,7.93
2023-05-14T08:17:54.887Z,7.95
2023-05-14T08:20:22.289Z,7.68
2023-05-14T08:22:49.219Z,8.35
2023-05-14T08:25:16.156Z,7.55
2023-05-14T08:27:42.952Z,7.03
2023-05-14T08:30:10.044Z,7.43
2023-05-14T08:32:38.566Z,7.97
2023-05-14T08:35:05.979Z,6.93
2023-05-14T08:37:32.750Z,7.40
2023-05-14T08:39:59.495Z,6.63
2023-05-14T08:42:28.595Z,6.85
2023-05-14T08:45:02.962Z,6.30
2023-05-14T08:47:31.061Z,6.63
2023-05-14T08:50:08.360Z,5.75
2023-05-14T08:52:35.994Z,6.13
2023-05-14T08:55:06.621Z,5.65
2023-05-14T08:57:34.210Z,6.05
2023-05-14T09:00:01.611Z,5.50
2023-05-14T09:02:30.391Z,5.90
2023-05-14T09:04:59.330Z,5.22
2023-05-14T09:07:26.476Z,4.93
2023-05-14T09:09:53.987Z,5.28
2023-05-14T09:12:22.028Z,5.07
2023-05-14T09:14:50.049Z,4.90
2023-05-14T09:17:18.020Z,5.22
2023-05-14T09:19:49.480Z,4.55
2023-05-14T09:22:17.660Z,5.55
2023-05-14T09:24:44.780Z,5.90
2023-05-14T09:27:21.378Z,5.03
2023-05-14T09:29:48.616Z,5.25
2023-05-14T09:32:15.445Z,4.90
2023-05-14T09:34:42.360Z,5.03
2023-05-14T09:37:10.222Z,5.13
2023-05-14T09:39:37.882Z,4.88
2023-05-14T09:42:05.065Z,5.45
2023-05-14T09:44:32.081Z,5.32
2023-05-14T09:46:58.989Z,5.13
2023-05-14T09:49:25.983Z,6.32
2023-05-14T09:51:52.735Z,5.68
2023-05-14T09:54:19.570Z,4.68
2023-05-14T09:56:46.379Z,4.47
2023-05-14T09:59:13.193Z,5.05
2023-05-14T10:01:43.004Z,5.07
2023-05-14T10:04:11.172Z,4.93
2023-05-14T10:06:40.110Z,5.70
2023-05-14T10:09:15.431Z,4.65
2023-05-14T10:11:45.381Z,4.95
2023-05-14T10:14:20.752Z,4.43
2023-05-14T10:16:50.703Z,4.28
2023-05-14T10:19:20.041Z,4.53
2023-05-14T10:21:53.503Z,4.23
2023-05-14T10:24:20.860Z,4.93
2023-05-14T10:26:48.672Z,5.15
2023-05-14T10:29:15.604Z,4.75
2023-05-14T10:31:49.625Z,4.68
2023-05-14T10:34:33.339Z,4.55
2023-05-14T10:37:02.196Z,4.15
2023-05-14T10:39:44.723Z,4.22
2023-05-14T10:42:21.834Z,4.63
2023-05-14T10:44:54.081Z,4.70
2023-05-14T10:47:21.373Z,4.18
2023-05-14T10:49:49.153Z,4.40
2023-05-14T10:52:19.699Z,4.32
2023-05-14T10:55:02.920Z,4.30
2023-05-14T10:57:32.511Z,3.90
2023-05-14T11:00:03.213Z,4.40
2023-05-14T11:02:36.975Z,4.63
2023-05-14T11:05:11.631Z,4.25
2023-05-14T11:07:49.152Z,4.70
2023-05-14T11:10:18.426Z,4.78
2023-05-14T11:12:47.041Z,3.90
2023-05-14T11:15:16.420Z,4.45
2023-05-14T11:17:45.001Z,4.50
2023-05-14T11:20:12.641Z,4.30
2023-05-14T11:22:41.047Z,4.70
2023-05-14T11:25:08.854Z,4.03
2023-05-14T11:27:38.186Z,4.07
2023-05-14T11:30:05.466Z,4.13
2023-05-14T11:32:33.062Z,4.03
2023-05-14T11:34:59.885Z,4.10
2023-05-14T11:37:26.571Z,3.88
2023-05-14T11:39:55.041Z,4.65
2023-05-14T11:42:22.447Z,3.80
2023-05-14T11:44:51.914Z,3.80
2023-05-14T11:47:21.267Z,3.95
2023-05-14T11:49:48.919Z,4.33
2023-05-14T11:52:16.500Z,4.10
2023-05-14T11:54:44.282Z,4.20
2023-05-14T11:57:16.203Z,4.15
2023-05-14T11:59:43.168Z,3.90
2023-05-14T12:02:18.172Z,4.22
2023-05-14T12:04:49.561Z,4.07
2023-05-14T12:07:16.791Z,4.10
2023-05-14T12:09:49.671Z,4.32
2023-05-14T12:12:21.770Z,4.05
2023-05-14T12:14:49.758Z,3.90
2023-05-14T12:17:21.629Z,3.70
2023-05-14T12:19:50.669Z,3.95
2023-05-14T12:22:19.686Z,4.00
2023-05-14T12:24:57.777Z,4.40
2023-05-14T12:27:29.659Z,4.07
2023-05-14T12:30:20.618Z,4.00
2023-05-14T12:32:51.858Z,4.28
2023-05-14T12:35:19.046Z,4.30
2023-05-14T12:37:46.014Z,3.55
2023-05-14T12:40:13.182Z,3.90
2023-05-14T12:42:41.340Z,3.85
2023-05-14T12:45:08.629Z,4.18
2023-05-14T12:47:36.828Z,4.10
2023-05-14T12:50:04.359Z,3.78
2023-05-14T12:55:01.466Z,3.72
2023-05-14T12:57:30.040Z,3.80
2023-05-14T12:59:57.508Z,3.70
2023-05-14T13:02:24.227Z,3.92
2023-05-14T13:04:50.964Z,3.78
2023-05-14T13:07:17.755Z,4.20
2023-05-14T13:09:44.573Z,4.03
2023-05-14T13:12:11.309Z,3.88
2023-05-14T13:14:38.075Z,3.85
2023-05-14T13:17:05.505Z,3.85
2023-05-14T13:19:32.392Z,3.80
2023-05-14T13:21:59.106Z,4.28
2023-05-14T13:24:25.928Z,3.72
2023-05-14T13:26:52.747Z,3.70
2023-05-14T13:29:19.402Z,3.75
2023-05-14T13:31:46.202Z,3.95
2023-05-14T13:34:13.170Z,3.90
2023-05-14T13:36:40.734Z,3.60
2023-05-14T13:39:07.689Z,3.70
2023-05-14T13:41:37.959Z,4.15
2023-05-14T13:44:04.946Z,4.20
2023-05-14T13:46:31.771Z,4.32
2023-05-14T13:48:58.605Z,4.13
2023-05-14T13:51:25.508Z,4.40
2023-05-14T13:56:19.217Z,4.15
2023-05-14T13:58:46.057Z,4.07
2023-05-14T14:01:12.998Z,4.55
2023-05-14T14:03:39.717Z,4.10
2023-05-14T14:06:06.560Z,4.10
2023-05-14T14:08:33.271Z,4.32
2023-05-14T14:11:00.280Z,4.20
2023-05-14T14:13:27.799Z,3.83
2023-05-14T14:15:54.647Z,4.25
2023-05-14T14:18:21.524Z,4.00
2023-05-14T14:20:48.329Z,4.38
2023-05-14T14:23:15.055Z,4.00
2023-05-14T14:25:41.850Z,4.18
2023-05-14T14:28:08.597Z,3.80
2023-05-14T14:30:35.437Z,4.22
2023-05-14T14:33:03.503Z,3.88
2023-05-14T14:35:30.855Z,4.40
2023-05-14T14:37:57.579Z,3.88
2023-05-14T14:40:24.563Z,4.15
2023-05-14T14:42:51.307Z,3.85
2023-05-14T14:45:18.437Z,3.80
2023-05-14T14:47:46.554Z,4.03
2023-05-14T14:50:13.978Z,4.28
2023-05-14T14:52:45.437Z,3.95
2023-05-14T14:55:12.996Z,4.15
2023-05-14T14:57:39.903Z,4.07
2023-05-14T15:00:09.295Z,3.92
2023-05-14T15:02:38.369Z,3.75
2023-05-14T15:05:06.094Z,4.15
2023-05-14T15:07:33.015Z,3.90
2023-05-14T15:09:59.917Z,4.18
2023-05-14T15:12:26.700Z,3.85
2023-05-14T15:14:53.442Z,3.67
2023-05-14T15:17:20.386Z,3.83
2023-05-14T15:19:47.556Z,3.55
2023-05-14T15:22:14.410Z,3.67
2023-05-14T15:24:41.145Z,3.60
2023-05-14T15:27:07.891Z,3.80
2023-05-14T15:29:34.654Z,3.60
2023-05-14T15:32:02.283Z,3.70
2023-05-14T15:34:29.032Z,3.60
2023-05-14T15:36:55.732Z,3.78
2023-05-14T15:39:22.493Z,3.83
2023-05-14T15:41:49.241Z,4.15
2023-05-14T15:44:16.084Z,4.00
2023-05-14T15:46:42.905Z,3.78
2023-05-14T15:49:09.733Z,3.53
2023-05-14T15:51:36.560Z,3.95
2023-05-14T15:54:03.545Z,3.65
2023-05-14T15:56:31.274Z,4.00
2023-05-14T15:58:58.062Z,3.88
2023-05-14T16:01:24.810Z,3.60
2023-05-14T16:03:52.641Z,3.50
2023-05-14T16:06:19.660Z,3.83
2023-05-14T16:08:46.472Z,3.83
2023-05-14T16:11:13.175Z,3.47
2023-05-14T16:13:41.543Z,3.80
2023-05-14T16:16:08.656Z,3.70
2023-05-14T16:18:35.550Z,4.00
2023-05-14T16:21:02.415Z,3.67
2023-05-14T16:23:29.229Z,3.75
2023-05-14T16:25:56.006Z,3.25
2023-05-14T16:28:23.005Z,3.67
2023-05-14T16:30:49.925Z,3.50
2023-05-14T16:33:16.646Z,3.75
2023-05-14T16:35:43.458Z,3.72
2023-05-14T16:38:10.314Z,3.55
2023-05-14T16:40:37.120Z,4.00
2023-05-14T16:43:03.988Z,3.80
2023-05-14T16:45:32.703Z,3.55
2023-05-14T16:48:01.025Z,3.40
2023-05-14T16:50:28.091Z,3.50
2023-05-14T16:52:54.865Z,3.83
2023-05-14T16:55:21.833Z,3.50
2023-05-14T16:57:48.883Z,3.50
2023-05-14T17:00:16.153Z,3.53
2023-05-14T17:02:42.923Z,4.28
2023-05-14T17:05:09.957Z,3.88
2023-05-14T17:07:38.504Z,4.05
2023-05-14T17:10:06.915Z,4.20
2023-05-14T17:12:33.773Z,4.20
2023-05-14T17:15:02.935Z,4.57
2023-05-14T17:17:32.640Z,5.10
2023-05-14T17:20:00.194Z,4.68
2023-05-14T17:22:27.253Z,5.45
2023-05-14T17:24:54.312Z,5.72
2023-05-14T17:27:21.023Z,5.85
2023-05-14T17:29:50.983Z,5.88
2023-05-14T17:32:18.471Z,5.68
2023-05-14T17:34:45.319Z,5.30
2023-05-14T17:37:12.182Z,6.10
2023-05-14T17:39:38.945Z,6.00
2023-05-14T17:42:06.382Z,5.93
2023-05-14T17:44:33.097Z,5.88
2023-05-14T17:47:00.467Z,5.03
2023-05-14T17:49:27.320Z,5.05
2023-05-14T17:51:54.140Z,5.40
2023-05-14T17:54:20.883Z,5.90
2023-05-14T17:56:48.206Z,5.97
2023-05-14T17:59:14.903Z,5.75
2023-05-14T18:01:41.707Z,5.82
2023-05-14T18:04:08.586Z,5.85
2023-05-14T18:06:35.481Z,6.60
2023-05-14T18:09:02.220Z,6.20
2023-05-14T18:11:35.564Z,5.72
2023-05-14T18:14:02.479Z,6.75
2023-05-14T18:16:29.535Z,6.10
2023-05-14T18:18:56.352Z,6.97
2023-05-14T18:21:23.314Z,6.35
2023-05-14T18:23:50.076Z,6.78
2023-05-14T18:26:16.901Z,6.93
2023-05-14T18:28:43.745Z,6.53
2023-05-14T18:31:11.490Z,6.93
2023-05-14T18:33:38.345Z,6.18
2023-05-14T18:36:05.404Z,6.40
2023-05-14T18:38:32.222Z,7.60
2023-05-14T18:40:59.012Z,6.85
2023-05-14T18:43:26.209Z,6.50
2023-05-14T18:45:53.693Z,7.13
2023-05-14T18:48:20.732Z,6.45
2023-05-14T18:50:47.510Z,6.30
2023-05-14T18:53:14.573Z,6.50
2023-05-14T18:55:41.383Z,6.63
2023-05-14T18:58:08.385Z,6.20
2023-05-14T19:00:35.201Z,5.88
2023-05-14T19:03:02.077Z,5.20
2023-05-14T19:05:28.979Z,5.93
2023-05-14T19:07:56.950Z,5.50
2023-05-14T19:10:23.744Z,6.05
2023-05-14T19:12:50.649Z,6.07
2023-05-14T19:15:17.512Z,6.18
2023-05-14T19:17:44.868Z,6.15
2023-05-14T19:20:12.435Z,6.20
2023-05-14T19:22:39.169Z,6.63
2023-05-14T19:25:07.868Z,5.78
2023-05-14T19:27:37.210Z,5.95
2023-05-14T19:30:04.510Z,6.32
2023-05-14T19:32:31.388Z,6.15
2023-05-14T19:34:58.148Z,6.22
2023-05-14T19:37:24.934Z,6.15
2023-05-14T19:39:51.687Z,5.82
2023-05-14T19:42:18.537Z,6.03
2023-05-14T19:44:45.437Z,6.00
2023-05-14T19:47:12.460Z,6.13
2023-05-14T19:49:39.222Z,6.05
2023-05-14T19:52:06.344Z,6.15
2023-05-14T19:54:33.060Z,6.07
2023-05-14T19:56:59.785Z,6.30
2023-05-14T19:59:26.595Z,6.60
2023-05-14T20:01:54.701Z,6.18
2023-05-14T20:04:21.543Z,5.85
2023-05-14T20:06:49.296Z,6.05
2023-05-14T20:09:16.134Z,6.65
2023-05-14T20:11:42.934Z,6.45
2023-05-14T20:14:09.657Z,6.60
2023-05-14T20:16:37.047Z,6.28
2023-05-14T20:19:04.052Z,6.00
2023-05-14T20:21:31.887Z,6.25
2023-05-14T20:23:58.664Z,5.93
2023-05-14T20:26:25.804Z,5.93
2023-05-14T20:28:53.567Z,5.55
2023-05-14T20:31:21.449Z,6.63
2023-05-14T20:33:48.974Z,6.10
2023-05-14T20:36:16.028Z,5.90
2023-05-14T20:38:42.823Z,5.93
2023-05-14T20:41:09.510Z,5.97
2023-05-14T20:43:36.384Z,6.15
2023-05-14T20:46:03.157Z,6.07
2023-05-14T20:48:30.017Z,6.13
2023-05-14T20:50:56.818Z,5.88
2023-05-14T20:53:25.268Z,6.38
2023-05-14T20:55:52.055Z,6.15
2023-05-14T20:58:18.835Z,5.85
2023-05-14T21:00:45.695Z,5.97
2023-05-14T21:03:12.463Z,5.78
2023-05-14T21:05:41.497Z,6.00
2023-05-14T21:08:08.517Z,5.88
2023-05-14T21:10:35.400Z,6.22
2023-05-14T21:13:02.201Z,5.97
2023-05-14T21:15:30.625Z,6.43
2023-05-14T21:17:57.376Z,6.70
2023-05-14T21:20:24.161Z,6.38
2023-05-14T21:22:50.860Z,6.63
2023-05-14T21:25:17.738Z,6.70
2023-05-14T21:27:44.512Z,6.50
2023-05-14T21:30:11.871Z,6.22
2023-05-14T21:32:38.816Z,6.45
2023-05-14T21:35:05.996Z,6.57
2023-05-14T21:37:33.168Z,6.55
2023-05-14T21:39:59.906Z,6.10
2023-05-14T21:42:26.607Z,6.90
2023-05-14T21:44:53.324Z,6.22
2023-05-14T21:47:21.054Z,6.45
2023-05-14T21:49:47.819Z,6.70
2023-05-14T21:52:14.592Z,6.40
2023-05-14T21:54:41.288Z,6.25
2023-05-14T21:57:08.024Z,6.40
2023-05-14T21:59:36.251Z,6.25
2023-05-14T22:02:07.443Z,7.13
2023-05-14T22:04:35.367Z,6.55
2023-05-14T22:07:02.360Z,6.40
2023-05-14T22:09:30.364Z,6.90
2023-05-14T22:11:58.196Z,6.13
2023-05-14T22:14:26.460Z,6.57
2023-05-14T22:16:53.268Z,6.65
2023-05-14T22:19:20.261Z,6.55
2023-05-14T22:21:47.056Z,6.57
2023-05-14T22:24:13.761Z,6.75
2023-05-14T22:26:40.522Z,6.38
2023-05-14T22:29:07.259Z,6.38
2023-05-14T22:31:34.104Z,6.20
2023-05-14T22:34:00.803Z,6.78
2023-05-14T22:36:27.543Z,6.93
2023-05-14T22:38:54.271Z,6.32
2023-05-14T22:41:22.153Z,6.60
2023-05-14T22:43:49.441Z,7.03
2023-05-14T22:46:16.462Z,7.38
2023-05-14T22:48:43.314Z,7.15
2023-05-14T22:51:10.041Z,7.30
2023-05-14T22:53:36.789Z,7.57
2023-05-14T22:56:03.769Z,7.10
2023-05-14T22:58:30.760Z,8.23
2023-05-14T23:00:57.730Z,8.13
2023-05-14T23:03:24.475Z,8.85
2023-05-14T23:05:52.130Z,7.72
2023-05-14T23:08:18.875Z,8.77
2023-05-14T23:10:45.658Z,9.45
2023-05-14T23:13:12.607Z,8.93
2023-05-14T23:15:39.341Z,9.50
2023-05-14T23:18:07.676Z,10.23
2023-05-14T23:20:34.503Z,10.23
2023-05-14T23:23:01.229Z,11.10
2023-05-14T23:25:27.964Z,10.10
2023-05-14T23:27:54.744Z,9.93
2023-05-14T23:30:21.474Z,10.05
2023-05-14T23:32:48.170Z,10.57
2023-05-14T23:35:15.075Z,10.50
2023-05-14T23:37:47.240Z,9.52
2023-05-14T23:40:14.277Z,10.23
2023-05-14T23:42:41.111Z,9.88
2023-05-14T23:45:08.471Z,10.50
2023-05-14T23:47:35.596Z,11.43
2023-05-14T23:50:02.978Z,11.40
2023-05-14T23:52:29.645Z,10.82
2023-05-14T23:54:56.334Z,11.90
2023-05-14T23:57:23.158Z,11.65
2023-05-14T23:59:49.881Z,12.18
